sensor_id;sensor_type;location;lat;lon;timestamp;P1;durP1;ratioP1;P2;durP2;ratioP2
16101;SDS011;56411;52.964;10.540;2022-10-19T00:01:02;12.93;;;2.73;;
16101;SDS011;56411;52.964;10.540;2022-10-19T00:03:29;11.43;;;2.80;;
16101;SDS011;56411;52.964;10.540;2022-10-19T00:05:58;9.47;;;2.60;;
16101;SDS011;56411;52.964;10.540;2022-10-19T00:08:25;11.17;;;2.60;;
16101;SDS011;56411;52.964;10.540;2022-10-19T00:10:52;12.70;;;2.67;;
16101;SDS011;56411;52.964;10.540;2022-10-19T00:13:19;10.47;;;2.50;;
16101;SDS011;56411;52.964;10.540;2022-10-19T00:15:46;9.27;;;2.40;;
16101;SDS011;56411;52.964;10.540;2022-10-19T00:18:12;14.67;;;3.37;;
16101;SDS011;56411;52.964;10.540;2022-10-19T00:20:39;14.20;;;3.27;;
16101;SDS011;56411;52.964;10.540;2022-10-19T00:23:08;8.93;;;2.67;;
16101;SDS011;56411;52.964;10.540;2022-10-19T00:25:35;8.23;;;2.53;;
16101;SDS011;56411;52.964;10.540;2022-10-19T00:28:02;11.37;;;2.70;;
16101;SDS011;56411;52.964;10.540;2022-10-19T00:30:29;12.77;;;2.70;;
16101;SDS011;56411;52.964;10.540;2022-10-19T00:32:57;10.13;;;2.43;;
16101;SDS011;56411;52.964;10.540;2022-10-19T00:35:23;10.13;;;2.37;;
16101;SDS011;56411;52.964;10.540;2022-10-19T00:37:50;8.65;;;2.60;;
16101;SDS011;56411;52.964;10.540;2022-10-19T00:40:19;11.83;;;3.80;;
16101;SDS011;56411;52.964;10.540;2022-10-19T00:42:46;9.90;;;2.60;;
16101;SDS011;56411;52.964;10.540;2022-10-19T00:45:18;10.23;;;2.40;;
16101;SDS011;56411;52.964;10.540;2022-10-19T00:47:45;7.10;;;2.20;;
16101;SDS011;56411;52.964;10.540;2022-10-19T00:50:13;12.53;;;2.87;;
16101;SDS011;56411;52.964;10.540;2022-10-19T00:52:41;11.03;;;3.07;;
16101;SDS011;56411;52.964;10.540;2022-10-19T00:55:08;10.93;;;2.63;;
16101;SDS011;56411;52.964;10.540;2022-10-19T00:57:38;9.63;;;2.50;;
16101;SDS011;56411;52.964;10.540;2022-10-19T01:00:06;9.33;;;2.50;;
16101;SDS011;56411;52.964;10.540;2022-10-19T01:02:34;9.20;;;2.20;;
16101;SDS011;56411;52.964;10.540;2022-10-19T01:05:01;12.43;;;2.43;;
16101;SDS011;56411;52.964;10.540;2022-10-19T01:07:29;12.13;;;2.57;;
16101;SDS011;56411;52.964;10.540;2022-10-19T01:09:56;10.37;;;2.67;;
16101;SDS011;56411;52.964;10.540;2022-10-19T01:15:16;13.87;;;2.60;;
16101;SDS011;56411;52.964;10.540;2022-10-19T01:17:55;9.43;;;2.50;;
16101;SDS011;56411;52.964;10.540;2022-10-19T01:20:41;9.88;;;2.30;;
16101;SDS011;56411;52.964;10.540;2022-10-19T01:26:58;9.97;;;2.60;;
16101;SDS011;56411;52.964;10.540;2022-10-19T01:29:56;12.57;;;2.63;;
16101;SDS011;56411;52.964;10.540;2022-10-19T01:32:27;8.57;;;2.43;;
16101;SDS011;56411;52.964;10.540;2022-10-19T01:35:04;14.70;;;2.83;;
16101;SDS011;56411;52.964;10.540;2022-10-19T01:37:34;10.63;;;2.58;;
16101;SDS011;56411;52.964;10.540;2022-10-19T01:40:08;11.95;;;2.90;;
16101;SDS011;56411;52.964;10.540;2022-10-19T01:42:41;8.33;;;2.30;;
16101;SDS011;56411;52.964;10.540;2022-10-19T01:45:14;11.33;;;2.43;;
16101;SDS011;56411;52.964;10.540;2022-10-19T01:47:45;9.20;;;2.17;;
16101;SDS011;56411;52.964;10.540;2022-10-19T01:50:18;11.73;;;2.20;;
16101;SDS011;56411;52.964;10.540;2022-10-19T01:52:49;11.10;;;2.43;;
16101;SDS011;56411;52.964;10.540;2022-10-19T01:55:18;9.60;;;2.17;;
16101;SDS011;56411;52.964;10.540;2022-10-19T01:57:47;11.03;;;2.57;;
16101;SDS011;56411;52.964;10.540;2022-10-19T02:00:21;10.00;;;2.50;;
16101;SDS011;56411;52.964;10.540;2022-10-19T02:02:50;8.75;;;2.08;;
16101;SDS011;56411;52.964;10.540;2022-10-19T02:05:19;9.57;;;2.27;;
16101;SDS011;56411;52.964;10.540;2022-10-19T02:07:52;7.57;;;2.00;;
16101;SDS011;56411;52.964;10.540;2022-10-19T02:10:23;7.18;;;2.30;;
16101;SDS011;56411;52.964;10.540;2022-10-19T02:12:51;10.45;;;2.20;;
16101;SDS011;56411;52.964;10.540;2022-10-19T02:15:21;8.70;;;2.27;;
16101;SDS011;56411;52.964;10.540;2022-10-19T02:17:51;11.10;;;2.17;;
16101;SDS011;56411;52.964;10.540;2022-10-19T02:20:21;10.48;;;2.10;;
16101;SDS011;56411;52.964;10.540;2022-10-19T02:22:49;10.40;;;2.10;;
16101;SDS011;56411;52.964;10.540;2022-10-19T02:25:16;11.20;;;2.37;;
16101;SDS011;56411;52.964;10.540;2022-10-19T02:27:43;9.73;;;2.17;;
16101;SDS011;56411;52.964;10.540;2022-10-19T02:30:11;9.88;;;2.00;;
16101;SDS011;56411;52.964;10.540;2022-10-19T02:32:42;9.80;;;2.57;;
16101;SDS011;56411;52.964;10.540;2022-10-19T02:35:09;8.88;;;1.92;;
16101;SDS011;56411;52.964;10.540;2022-10-19T02:37:38;10.27;;;2.40;;
16101;SDS011;56411;52.964;10.540;2022-10-19T02:40:05;8.83;;;2.20;;
16101;SDS011;56411;52.964;10.540;2022-10-19T02:42:34;9.43;;;2.30;;
16101;SDS011;56411;52.964;10.540;2022-10-19T02:45:06;8.10;;;2.10;;
16101;SDS011;56411;52.964;10.540;2022-10-19T02:47:37;10.40;;;2.40;;
16101;SDS011;56411;52.964;10.540;2022-10-19T02:50:12;8.02;;;2.20;;
16101;SDS011;56411;52.964;10.540;2022-10-19T02:52:40;10.23;;;2.47;;
16101;SDS011;56411;52.964;10.540;2022-10-19T02:55:07;9.57;;;2.17;;
16101;SDS011;56411;52.964;10.540;2022-10-19T02:57:34;12.45;;;2.13;;
16101;SDS011;56411;52.964;10.540;2022-10-19T03:00:03;10.60;;;2.30;;
16101;SDS011;56411;52.964;10.540;2022-10-19T03:02:33;6.67;;;1.90;;
16101;SDS011;56411;52.964;10.540;2022-10-19T03:05:02;8.67;;;2.00;;
16101;SDS011;56411;52.964;10.540;2022-10-19T03:07:29;9.93;;;2.13;;
16101;SDS011;56411;52.964;10.540;2022-10-19T03:09:56;11.73;;;2.43;;
16101;SDS011;56411;52.964;10.540;2022-10-19T03:12:23;8.30;;;2.03;;
16101;SDS011;56411;52.964;10.540;2022-10-19T03:14:50;13.65;;;2.20;;
16101;SDS011;56411;52.964;10.540;2022-10-19T03:17:17;10.00;;;2.00;;
16101;SDS011;56411;52.964;10.540;2022-10-19T03:19:44;9.87;;;2.67;;
16101;SDS011;56411;52.964;10.540;2022-10-19T03:22:13;4.43;;;1.80;;
16101;SDS011;56411;52.964;10.540;2022-10-19T03:24:40;9.47;;;2.20;;
16101;SDS011;56411;52.964;10.540;2022-10-19T03:27:06;6.37;;;1.90;;
16101;SDS011;56411;52.964;10.540;2022-10-19T03:29:33;10.80;;;2.27;;
16101;SDS011;56411;52.964;10.540;2022-10-19T03:32:00;7.17;;;2.03;;
16101;SDS011;56411;52.964;10.540;2022-10-19T03:34:27;9.07;;;2.20;;
16101;SDS011;56411;52.964;10.540;2022-10-19T03:36:54;11.07;;;2.67;;
16101;SDS011;56411;52.964;10.540;2022-10-19T03:39:24;9.77;;;2.40;;
16101;SDS011;56411;52.964;10.540;2022-10-19T03:41:51;9.80;;;2.50;;
16101;SDS011;56411;52.964;10.540;2022-10-19T03:44:18;10.60;;;2.20;;
16101;SDS011;56411;52.964;10.540;2022-10-19T03:46:45;10.10;;;2.20;;
16101;SDS011;56411;52.964;10.540;2022-10-19T03:49:12;9.67;;;2.17;;
16101;SDS011;56411;52.964;10.540;2022-10-19T03:51:39;11.00;;;2.33;;
16101;SDS011;56411;52.964;10.540;2022-10-19T03:54:06;9.07;;;2.30;;
16101;SDS011;56411;52.964;10.540;2022-10-19T03:56:38;7.17;;;2.07;;
16101;SDS011;56411;52.964;10.540;2022-10-19T03:59:05;10.77;;;2.13;;
16101;SDS011;56411;52.964;10.540;2022-10-19T04:01:33;6.73;;;2.00;;
16101;SDS011;56411;52.964;10.540;2022-10-19T04:04:02;9.37;;;1.97;;
16101;SDS011;56411;52.964;10.540;2022-10-19T04:06:31;6.93;;;2.13;;
16101;SDS011;56411;52.964;10.540;2022-10-19T04:09:00;7.53;;;1.80;;
16101;SDS011;56411;52.964;10.540;2022-10-19T04:11:28;8.37;;;1.80;;
16101;SDS011;56411;52.964;10.540;2022-10-19T04:13:58;9.57;;;1.97;;
16101;SDS011;56411;52.964;10.540;2022-10-19T04:16:26;17.13;;;2.30;;
16101;SDS011;56411;52.964;10.540;2022-10-19T04:18:54;7.27;;;1.80;;
16101;SDS011;56411;52.964;10.540;2022-10-19T04:21:22;9.57;;;2.30;;
16101;SDS011;56411;52.964;10.540;2022-10-19T04:23:51;9.15;;;1.98;;
16101;SDS011;56411;52.964;10.540;2022-10-19T04:26:19;9.77;;;2.43;;
16101;SDS011;56411;52.964;10.540;2022-10-19T04:28:46;10.03;;;2.10;;
16101;SDS011;56411;52.964;10.540;2022-10-19T04:31:15;11.73;;;2.50;;
16101;SDS011;56411;52.964;10.540;2022-10-19T04:33:41;11.60;;;2.30;;
16101;SDS011;56411;52.964;10.540;2022-10-19T04:36:09;11.10;;;2.30;;
16101;SDS011;56411;52.964;10.540;2022-10-19T04:38:37;5.50;;;1.70;;
16101;SDS011;56411;52.964;10.540;2022-10-19T04:41:05;9.83;;;2.10;;
16101;SDS011;56411;52.964;10.540;2022-10-19T04:43:34;12.15;;;2.33;;
16101;SDS011;56411;52.964;10.540;2022-10-19T04:46:02;10.90;;;2.10;;
16101;SDS011;56411;52.964;10.540;2022-10-19T04:48:32;10.67;;;2.30;;
16101;SDS011;56411;52.964;10.540;2022-10-19T04:50:59;9.23;;;1.98;;
16101;SDS011;56411;52.964;10.540;2022-10-19T04:53:26;9.53;;;2.03;;
16101;SDS011;56411;52.964;10.540;2022-10-19T04:55:53;8.40;;;2.50;;
16101;SDS011;56411;52.964;10.540;2022-10-19T04:58:20;10.53;;;2.33;;
16101;SDS011;56411;52.964;10.540;2022-10-19T05:00:47;10.03;;;2.50;;
16101;SDS011;56411;52.964;10.540;2022-10-19T05:03:14;7.03;;;2.13;;
16101;SDS011;56411;52.964;10.540;2022-10-19T05:05:43;8.57;;;2.40;;
16101;SDS011;56411;52.964;10.540;2022-10-19T05:08:10;9.50;;;2.47;;
16101;SDS011;56411;52.964;10.540;2022-10-19T05:10:37;11.03;;;2.50;;
16101;SDS011;56411;52.964;10.540;2022-10-19T05:13:03;8.53;;;2.40;;
16101;SDS011;56411;52.964;10.540;2022-10-19T05:15:30;9.77;;;2.53;;
16101;SDS011;56411;52.964;10.540;2022-10-19T05:17:58;9.03;;;2.00;;
16101;SDS011;56411;52.964;10.540;2022-10-19T05:20:25;8.93;;;2.97;;
16101;SDS011;56411;52.964;10.540;2022-10-19T05:22:53;11.83;;;2.73;;
16101;SDS011;56411;52.964;10.540;2022-10-19T05:25:20;7.50;;;2.40;;
16101;SDS011;56411;52.964;10.540;2022-10-19T05:27:49;7.67;;;2.20;;
16101;SDS011;56411;52.964;10.540;2022-10-19T05:30:17;9.47;;;2.60;;
16101;SDS011;56411;52.964;10.540;2022-10-19T05:32:45;8.47;;;2.37;;
16101;SDS011;56411;52.964;10.540;2022-10-19T05:35:12;8.83;;;2.27;;
16101;SDS011;56411;52.964;10.540;2022-10-19T05:37:39;10.55;;;2.28;;
16101;SDS011;56411;52.964;10.540;2022-10-19T05:40:08;9.07;;;2.30;;
16101;SDS011;56411;52.964;10.540;2022-10-19T05:42:35;9.37;;;2.37;;
16101;SDS011;56411;52.964;10.540;2022-10-19T05:45:03;10.90;;;2.73;;
16101;SDS011;56411;52.964;10.540;2022-10-19T05:47:30;8.37;;;2.20;;
16101;SDS011;56411;52.964;10.540;2022-10-19T05:49:57;9.38;;;2.08;;
16101;SDS011;56411;52.964;10.540;2022-10-19T05:52:24;7.63;;;2.23;;
16101;SDS011;56411;52.964;10.540;2022-10-19T05:54:51;8.97;;;2.20;;
16101;SDS011;56411;52.964;10.540;2022-10-19T05:57:19;11.35;;;2.75;;
16101;SDS011;56411;52.964;10.540;2022-10-19T05:59:46;10.97;;;3.73;;
16101;SDS011;56411;52.964;10.540;2022-10-19T06:02:13;13.90;;;2.63;;
16101;SDS011;56411;52.964;10.540;2022-10-19T06:04:40;11.67;;;3.53;;
16101;SDS011;56411;52.964;10.540;2022-10-19T06:07:06;12.10;;;2.72;;
16101;SDS011;56411;52.964;10.540;2022-10-19T06:09:33;9.13;;;2.47;;
16101;SDS011;56411;52.964;10.540;2022-10-19T06:12:01;10.43;;;2.37;;
16101;SDS011;56411;52.964;10.540;2022-10-19T06:14:30;8.77;;;2.40;;
16101;SDS011;56411;52.964;10.540;2022-10-19T06:16:57;10.20;;;2.37;;
16101;SDS011;56411;52.964;10.540;2022-10-19T06:19:24;8.20;;;2.00;;
16101;SDS011;56411;52.964;10.540;2022-10-19T06:21:50;9.17;;;2.50;;
16101;SDS011;56411;52.964;10.540;2022-10-19T06:24:17;10.27;;;2.53;;
16101;SDS011;56411;52.964;10.540;2022-10-19T06:26:44;8.80;;;2.20;;
16101;SDS011;56411;52.964;10.540;2022-10-19T06:29:11;9.80;;;2.40;;
16101;SDS011;56411;52.964;10.540;2022-10-19T06:31:39;12.07;;;3.60;;
16101;SDS011;56411;52.964;10.540;2022-10-19T06:34:06;8.30;;;2.40;;
16101;SDS011;56411;52.964;10.540;2022-10-19T06:36:33;10.23;;;3.10;;
16101;SDS011;56411;52.964;10.540;2022-10-19T06:39:00;7.30;;;1.83;;
16101;SDS011;56411;52.964;10.540;2022-10-19T06:41:27;11.43;;;3.50;;
16101;SDS011;56411;52.964;10.540;2022-10-19T06:43:54;9.07;;;2.30;;
16101;SDS011;56411;52.964;10.540;2022-10-19T06:46:22;6.60;;;2.23;;
16101;SDS011;56411;52.964;10.540;2022-10-19T06:48:52;7.70;;;1.85;;
16101;SDS011;56411;52.964;10.540;2022-10-19T06:51:20;11.70;;;2.20;;
16101;SDS011;56411;52.964;10.540;2022-10-19T06:53:49;7.43;;;1.90;;
16101;SDS011;56411;52.964;10.540;2022-10-19T06:56:16;7.30;;;2.07;;
16101;SDS011;56411;52.964;10.540;2022-10-19T06:58:43;8.87;;;2.40;;
16101;SDS011;56411;52.964;10.540;2022-10-19T07:01:10;7.07;;;1.90;;
16101;SDS011;56411;52.964;10.540;2022-10-19T07:03:38;5.27;;;1.80;;
16101;SDS011;56411;52.964;10.540;2022-10-19T07:06:09;7.33;;;2.00;;
16101;SDS011;56411;52.964;10.540;2022-10-19T07:08:37;10.03;;;2.20;;
16101;SDS011;56411;52.964;10.540;2022-10-19T07:11:06;6.35;;;1.88;;
16101;SDS011;56411;52.964;10.540;2022-10-19T07:13:34;9.13;;;2.10;;
16101;SDS011;56411;52.964;10.540;2022-10-19T07:16:02;6.50;;;2.37;;
16101;SDS011;56411;52.964;10.540;2022-10-19T07:18:31;7.80;;;2.10;;
16101;SDS011;56411;52.964;10.540;2022-10-19T07:21:00;7.90;;;2.00;;
16101;SDS011;56411;52.964;10.540;2022-10-19T07:23:29;9.10;;;1.90;;
16101;SDS011;56411;52.964;10.540;2022-10-19T07:26:01;12.17;;;2.50;;
16101;SDS011;56411;52.964;10.540;2022-10-19T07:28:30;8.77;;;1.88;;
16101;SDS011;56411;52.964;10.540;2022-10-19T07:30:57;8.85;;;1.80;;
16101;SDS011;56411;52.964;10.540;2022-10-19T07:33:24;9.30;;;1.80;;
16101;SDS011;56411;52.964;10.540;2022-10-19T07:35:57;7.27;;;1.80;;
16101;SDS011;56411;52.964;10.540;2022-10-19T07:38:25;10.30;;;1.92;;
16101;SDS011;56411;52.964;10.540;2022-10-19T07:40:59;4.77;;;1.60;;
16101;SDS011;56411;52.964;10.540;2022-10-19T07:43:28;9.50;;;2.30;;
16101;SDS011;56411;52.964;10.540;2022-10-19T07:45:58;4.97;;;1.60;;
16101;SDS011;56411;52.964;10.540;2022-10-19T07:48:25;5.90;;;2.00;;
16101;SDS011;56411;52.964;10.540;2022-10-19T07:50:52;6.87;;;1.60;;
16101;SDS011;56411;52.964;10.540;2022-10-19T07:53:20;8.30;;;1.97;;
16101;SDS011;56411;52.964;10.540;2022-10-19T07:55:47;9.90;;;1.80;;
16101;SDS011;56411;52.964;10.540;2022-10-19T07:58:15;7.65;;;2.25;;
16101;SDS011;56411;52.964;10.540;2022-10-19T08:00:42;7.30;;;1.80;;
16101;SDS011;56411;52.964;10.540;2022-10-19T08:03:09;8.03;;;1.80;;
16101;SDS011;56411;52.964;10.540;2022-10-19T08:05:36;7.90;;;1.87;;
16101;SDS011;56411;52.964;10.540;2022-10-19T08:08:03;7.50;;;2.03;;
16101;SDS011;56411;52.964;10.540;2022-10-19T08:10:30;6.97;;;1.80;;
16101;SDS011;56411;52.964;10.540;2022-10-19T08:12:57;4.83;;;1.63;;
16101;SDS011;56411;52.964;10.540;2022-10-19T08:15:25;6.30;;;1.60;;
16101;SDS011;56411;52.964;10.540;2022-10-19T08:17:54;6.90;;;1.60;;
16101;SDS011;56411;52.964;10.540;2022-10-19T08:20:21;8.40;;;1.80;;
16101;SDS011;56411;52.964;10.540;2022-10-19T08:22:48;5.47;;;1.53;;
16101;SDS011;56411;52.964;10.540;2022-10-19T08:25:15;8.40;;;1.70;;
16101;SDS011;56411;52.964;10.540;2022-10-19T08:27:42;8.52;;;1.92;;
16101;SDS011;56411;52.964;10.540;2022-10-19T08:30:09;7.93;;;1.63;;
16101;SDS011;56411;52.964;10.540;2022-10-19T08:32:38;6.60;;;2.03;;
16101;SDS011;56411;52.964;10.540;2022-10-19T08:35:05;6.97;;;1.40;;
16101;SDS011;56411;52.964;10.540;2022-10-19T08:37:32;9.13;;;2.28;;
16101;SDS011;56411;52.964;10.540;2022-10-19T08:39:59;11.53;;;3.17;;
16101;SDS011;56411;52.964;10.540;2022-10-19T08:42:27;8.63;;;2.53;;
16101;SDS011;56411;52.964;10.540;2022-10-19T08:45:02;9.15;;;1.60;;
16101;SDS011;56411;52.964;10.540;2022-10-19T08:47:54;7.53;;;1.67;;
16101;SDS011;56411;52.964;10.540;2022-10-19T08:50:36;7.33;;;1.60;;
16101;SDS011;56411;52.964;10.540;2022-10-19T08:53:10;5.93;;;1.50;;
16101;SDS011;56411;52.964;10.540;2022-10-19T08:55:42;10.60;;;1.90;;
16101;SDS011;56411;52.964;10.540;2022-10-19T08:58:19;6.37;;;1.50;;
16101;SDS011;56411;52.964;10.540;2022-10-19T09:00:57;8.20;;;1.70;;
16101;SDS011;56411;52.964;10.540;2022-10-19T09:03:33;8.30;;;1.65;;
16101;SDS011;56411;52.964;10.540;2022-10-19T09:06:05;9.02;;;2.15;;
16101;SDS011;56411;52.964;10.540;2022-10-19T09:08:40;9.20;;;2.10;;
16101;SDS011;56411;52.964;10.540;2022-10-19T09:11:07;10.13;;;2.03;;
16101;SDS011;56411;52.964;10.540;2022-10-19T09:13:37;8.68;;;2.10;;
16101;SDS011;56411;52.964;10.540;2022-10-19T09:16:08;9.60;;;1.90;;
16101;SDS011;56411;52.964;10.540;2022-10-19T09:18:38;5.63;;;1.60;;
16101;SDS011;56411;52.964;10.540;2022-10-19T09:21:08;6.50;;;1.77;;
16101;SDS011;56411;52.964;10.540;2022-10-19T09:23:40;7.55;;;2.05;;
16101;SDS011;56411;52.964;10.540;2022-10-19T09:26:10;7.65;;;1.98;;
16101;SDS011;56411;52.964;10.540;2022-10-19T09:28:44;6.07;;;1.80;;
16101;SDS011;56411;52.964;10.540;2022-10-19T09:31:17;5.97;;;1.90;;
16101;SDS011;56411;52.964;10.540;2022-10-19T09:33:53;6.95;;;2.00;;
16101;SDS011;56411;52.964;10.540;2022-10-19T09:36:24;7.65;;;1.90;;
16101;SDS011;56411;52.964;10.540;2022-10-19T09:38:57;8.32;;;1.88;;
16101;SDS011;56411;52.964;10.540;2022-10-19T09:41:24;6.22;;;1.88;;
16101;SDS011;56411;52.964;10.540;2022-10-19T09:43:51;7.03;;;2.03;;
16101;SDS011;56411;52.964;10.540;2022-10-19T09:46:25;6.85;;;1.75;;
16101;SDS011;56411;52.964;10.540;2022-10-19T09:48:58;8.75;;;1.98;;
16101;SDS011;56411;52.964;10.540;2022-10-19T09:51:28;7.45;;;1.63;;
16101;SDS011;56411;52.964;10.540;2022-10-19T09:54:05;5.25;;;1.65;;
16101;SDS011;56411;52.964;10.540;2022-10-19T09:56:51;10.43;;;1.97;;
16101;SDS011;56411;52.964;10.540;2022-10-19T09:59:20;5.53;;;1.87;;
16101;SDS011;56411;52.964;10.540;2022-10-19T10:01:49;7.20;;;1.70;;
16101;SDS011;56411;52.964;10.540;2022-10-19T10:04:27;8.03;;;1.87;;
16101;SDS011;56411;52.964;10.540;2022-10-19T10:06:55;8.65;;;1.70;;
16101;SDS011;56411;52.964;10.540;2022-10-19T10:09:24;7.85;;;1.80;;
16101;SDS011;56411;52.964;10.540;2022-10-19T10:11:53;6.95;;;1.73;;
16101;SDS011;56411;52.964;10.540;2022-10-19T10:14:25;8.77;;;2.10;;
16101;SDS011;56411;52.964;10.540;2022-10-19T10:16:56;11.50;;;2.20;;
16101;SDS011;56411;52.964;10.540;2022-10-19T10:19:28;10.90;;;2.30;;
16101;SDS011;56411;52.964;10.540;2022-10-19T10:21:57;7.97;;;2.30;;
16101;SDS011;56411;52.964;10.540;2022-10-19T10:24:25;9.50;;;2.38;;
16101;SDS011;56411;52.964;10.540;2022-10-19T10:26:54;6.70;;;1.67;;
16101;SDS011;56411;52.964;10.540;2022-10-19T10:29:25;10.45;;;2.28;;
16101;SDS011;56411;52.964;10.540;2022-10-19T10:31:57;8.70;;;1.65;;
16101;SDS011;56411;52.964;10.540;2022-10-19T10:34:31;8.13;;;2.13;;
16101;SDS011;56411;52.964;10.540;2022-10-19T10:37:02;11.63;;;1.95;;
16101;SDS011;56411;52.964;10.540;2022-10-19T10:39:31;12.65;;;2.67;;
16101;SDS011;56411;52.964;10.540;2022-10-19T10:42:04;9.00;;;1.95;;
16101;SDS011;56411;52.964;10.540;2022-10-19T10:44:38;10.70;;;2.15;;
16101;SDS011;56411;52.964;10.540;2022-10-19T10:47:12;7.25;;;2.45;;
16101;SDS011;56411;52.964;10.540;2022-10-19T10:49:43;8.25;;;1.90;;
16101;SDS011;56411;52.964;10.540;2022-10-19T10:52:19;6.85;;;2.10;;
16101;SDS011;56411;52.964;10.540;2022-10-19T10:54:56;10.30;;;2.25;;
16101;SDS011;56411;52.964;10.540;2022-10-19T10:57:24;12.25;;;2.33;;
16101;SDS011;56411;52.964;10.540;2022-10-19T10:59:55;10.30;;;2.50;;
16101;SDS011;56411;52.964;10.540;2022-10-19T11:02:29;8.68;;;2.60;;
16101;SDS011;56411;52.964;10.540;2022-10-19T11:05:03;12.43;;;2.78;;
16101;SDS011;56411;52.964;10.540;2022-10-19T11:07:36;9.77;;;2.10;;
16101;SDS011;56411;52.964;10.540;2022-10-19T11:10:11;8.23;;;3.03;;
16101;SDS011;56411;52.964;10.540;2022-10-19T11:12:45;8.90;;;2.35;;
16101;SDS011;56411;52.964;10.540;2022-10-19T11:15:18;11.20;;;2.80;;
16101;SDS011;56411;52.964;10.540;2022-10-19T11:17:56;10.07;;;2.20;;
16101;SDS011;56411;52.964;10.540;2022-10-19T11:20:32;9.90;;;2.20;;
16101;SDS011;56411;52.964;10.540;2022-10-19T16:57:32;12.40;;;5.13;;
16101;SDS011;56411;52.964;10.540;2022-10-19T17:00:00;15.63;;;6.00;;
16101;SDS011;56411;52.964;10.540;2022-10-19T17:02:27;15.37;;;6.73;;
16101;SDS011;56411;52.964;10.540;2022-10-19T17:04:53;13.83;;;6.90;;
16101;SDS011;56411;52.964;10.540;2022-10-19T17:07:20;13.03;;;6.70;;
16101;SDS011;56411;52.964;10.540;2022-10-19T17:09:48;16.13;;;7.47;;
16101;SDS011;56411;52.964;10.540;2022-10-19T17:12:15;15.23;;;7.47;;
16101;SDS011;56411;52.964;10.540;2022-10-19T17:14:44;16.70;;;8.67;;
16101;SDS011;56411;52.964;10.540;2022-10-19T17:17:11;18.40;;;9.07;;
16101;SDS011;56411;52.964;10.540;2022-10-19T17:19:38;19.40;;;10.73;;
16101;SDS011;56411;52.964;10.540;2022-10-19T17:22:05;17.80;;;9.07;;
16101;SDS011;56411;52.964;10.540;2022-10-19T17:24:32;15.90;;;7.67;;
16101;SDS011;56411;52.964;10.540;2022-10-19T17:27:00;17.73;;;8.03;;
16101;SDS011;56411;52.964;10.540;2022-10-19T17:29:27;16.00;;;7.23;;
16101;SDS011;56411;52.964;10.540;2022-10-19T17:31:56;17.53;;;8.33;;
16101;SDS011;56411;52.964;10.540;2022-10-19T17:34:23;20.13;;;8.23;;
16101;SDS011;56411;52.964;10.540;2022-10-19T17:36:51;16.63;;;7.80;;
16101;SDS011;56411;52.964;10.540;2022-10-19T17:39:18;19.03;;;10.20;;
16101;SDS011;56411;52.964;10.540;2022-10-19T17:41:47;21.67;;;10.30;;
16101;SDS011;56411;52.964;10.540;2022-10-19T17:44:15;18.47;;;9.90;;
16101;SDS011;56411;52.964;10.540;2022-10-19T17:46:43;17.43;;;9.43;;
16101;SDS011;56411;52.964;10.540;2022-10-19T17:49:12;18.93;;;9.67;;
16101;SDS011;56411;52.964;10.540;2022-10-19T17:51:40;17.97;;;8.93;;
16101;SDS011;56411;52.964;10.540;2022-10-19T17:54:07;19.43;;;13.33;;
16101;SDS011;56411;52.964;10.540;2022-10-19T17:56:37;21.07;;;13.17;;
16101;SDS011;56411;52.964;10.540;2022-10-19T17:59:04;17.47;;;10.33;;
16101;SDS011;56411;52.964;10.540;2022-10-19T18:01:33;15.83;;;8.60;;
16101;SDS011;56411;52.964;10.540;2022-10-19T18:04:01;18.27;;;7.50;;
16101;SDS011;56411;52.964;10.540;2022-10-19T18:06:30;14.97;;;7.00;;
16101;SDS011;56411;52.964;10.540;2022-10-19T18:08:59;22.67;;;8.10;;
16101;SDS011;56411;52.964;10.540;2022-10-19T18:11:28;14.57;;;6.90;;
16101;SDS011;56411;52.964;10.540;2022-10-19T18:13:59;16.63;;;8.57;;
16101;SDS011;56411;52.964;10.540;2022-10-19T18:16:27;17.70;;;8.20;;
16101;SDS011;56411;52.964;10.540;2022-10-19T18:18:56;17.20;;;6.33;;
16101;SDS011;56411;52.964;10.540;2022-10-19T18:21:25;16.03;;;8.00;;
16101;SDS011;56411;52.964;10.540;2022-10-19T18:23:55;13.83;;;6.63;;
16101;SDS011;56411;52.964;10.540;2022-10-19T18:26:24;18.50;;;8.70;;
16101;SDS011;56411;52.964;10.540;2022-10-19T18:28:53;15.03;;;7.03;;
16101;SDS011;56411;52.964;10.540;2022-10-19T18:31:21;13.70;;;7.10;;
16101;SDS011;56411;52.964;10.540;2022-10-19T18:33:53;14.07;;;6.07;;
16101;SDS011;56411;52.964;10.540;2022-10-19T18:36:21;15.33;;;7.23;;
16101;SDS011;56411;52.964;10.540;2022-10-19T18:38:48;13.83;;;6.23;;
16101;SDS011;56411;52.964;10.540;2022-10-19T18:41:17;15.53;;;6.17;;
16101;SDS011;56411;52.964;10.540;2022-10-19T18:43:48;15.13;;;6.63;;
16101;SDS011;56411;52.964;10.540;2022-10-19T18:46:16;14.10;;;7.13;;
16101;SDS011;56411;52.964;10.540;2022-10-19T18:48:44;13.73;;;7.00;;
16101;SDS011;56411;52.964;10.540;2022-10-19T18:51:12;14.47;;;7.50;;
16101;SDS011;56411;52.964;10.540;2022-10-19T18:53:40;14.77;;;6.70;;
16101;SDS011;56411;52.964;10.540;2022-10-19T18:56:08;15.40;;;7.10;;
16101;SDS011;56411;52.964;10.540;2022-10-19T18:58:38;13.40;;;6.50;;
16101;SDS011;56411;52.964;10.540;2022-10-19T19:01:06;14.50;;;6.13;;
16101;SDS011;56411;52.964;10.540;2022-10-19T19:03:35;14.10;;;6.67;;
16101;SDS011;56411;52.964;10.540;2022-10-19T19:06:03;18.43;;;7.63;;
16101;SDS011;56411;52.964;10.540;2022-10-19T19:08:32;15.97;;;8.50;;
16101;SDS011;56411;52.964;10.540;2022-10-19T19:11:07;15.67;;;7.97;;
16101;SDS011;56411;52.964;10.540;2022-10-19T19:13:34;15.90;;;8.30;;
16101;SDS011;56411;52.964;10.540;2022-10-19T19:16:02;15.27;;;7.70;;
16101;SDS011;56411;52.964;10.540;2022-10-19T19:18:30;15.53;;;7.80;;
16101;SDS011;56411;52.964;10.540;2022-10-19T19:20:58;16.60;;;8.90;;
16101;SDS011;56411;52.964;10.540;2022-10-19T19:23:25;17.00;;;7.90;;
16101;SDS011;56411;52.964;10.540;2022-10-19T19:25:52;16.70;;;7.80;;
16101;SDS011;56411;52.964;10.540;2022-10-19T19:28:19;14.83;;;7.33;;
16101;SDS011;56411;52.964;10.540;2022-10-19T19:30:46;16.53;;;7.40;;
16101;SDS011;56411;52.964;10.540;2022-10-19T19:33:14;17.70;;;8.03;;
16101;SDS011;56411;52.964;10.540;2022-10-19T19:35:41;20.23;;;10.37;;
16101;SDS011;56411;52.964;10.540;2022-10-19T19:38:08;21.63;;;9.70;;
16101;SDS011;56411;52.964;10.540;2022-10-19T19:40:37;16.37;;;7.47;;
16101;SDS011;56411;52.964;10.540;2022-10-19T19:43:05;14.00;;;7.07;;
16101;SDS011;56411;52.964;10.540;2022-10-19T19:45:32;17.40;;;7.80;;
16101;SDS011;56411;52.964;10.540;2022-10-19T19:47:59;15.93;;;8.00;;
16101;SDS011;56411;52.964;10.540;2022-10-19T19:50:28;17.30;;;7.60;;
16101;SDS011;56411;52.964;10.540;2022-10-19T19:52:55;16.27;;;7.73;;
16101;SDS011;56411;52.964;10.540;2022-10-19T19:55:24;17.30;;;8.00;;
16101;SDS011;56411;52.964;10.540;2022-10-19T19:57:51;15.90;;;7.60;;
16101;SDS011;56411;52.964;10.540;2022-10-19T20:00:18;20.20;;;9.50;;
16101;SDS011;56411;52.964;10.540;2022-10-19T20:02:49;20.00;;;9.37;;
16101;SDS011;56411;52.964;10.540;2022-10-19T20:05:17;21.93;;;11.93;;
16101;SDS011;56411;52.964;10.540;2022-10-19T20:07:45;25.80;;;12.10;;
16101;SDS011;56411;52.964;10.540;2022-10-19T20:10:12;25.07;;;10.77;;
16101;SDS011;56411;52.964;10.540;2022-10-19T20:12:40;20.50;;;10.97;;
16101;SDS011;56411;52.964;10.540;2022-10-19T20:15:08;21.87;;;10.07;;
16101;SDS011;56411;52.964;10.540;2022-10-19T20:17:35;22.40;;;10.10;;
16101;SDS011;56411;52.964;10.540;2022-10-19T20:20:03;18.93;;;9.57;;